Time;durP1;ratioP1;P1;durP2;ratioP2;P2;SDS_P1;SDS_P2;PMS_P1;PMS_P2;Temp;Humidity;BMP_temperature;BMP_pressure;BME280_temperature;BME280_humidity;BME280_pressure;Samples;Min_cycle;Max_cycle;Signal;HPM_P1;HPM_P2
2021/12/08 00:00:30;;;;;;;5.10;3.40;;;5.30;99.90;;;;;;4995611;28;20409;-57
2021/12/08 00:02:57;;;;;;;3.13;2.83;;;5.30;99.90;;;;;;4995988;28;20431;-57
2021/12/08 00:05:24;;;;;;;5.57;3.00;;;5.30;99.90;;;;;;4979572;28;20468;-56
2021/12/08 00:07:50;;;;;;;3.70;3.40;;;5.30;99.90;;;;;;5013008;28;20403;-54
2021/12/08 00:10:50;;;;;;;3.80;2.70;;;5.40;99.90;;;;;;4995625;28;20446;-55
2021/12/08 00:13:13;;;;;;;3.73;2.63;;;5.40;99.90;;;;;;4999306;28;20525;-54
2021/12/08 00:15:50;;;;;;;2.53;2.33;;;5.30;99.90;;;;;;4995434;28;20450;-53
2021/12/08 00:18:26;;;;;;;4.50;2.80;;;5.40;99.90;;;;;;5013042;28;20159;-55
2021/12/08 00:20:55;;;;;;;3.33;2.30;;;5.40;99.90;;;;;;4996132;28;20402;-51
2021/12/08 00:23:21;;;;;;;4.10;2.20;;;5.50;99.90;;;;;;5012699;28;20779;-52
2021/12/08 00:25:47;;;;;;;3.30;2.17;;;5.50;99.90;;;;;;4979245;28;20407;-52
2021/12/08 00:28:13;;;;;;;3.67;2.37;;;5.20;99.90;;;;;;4979406;28;20982;-52
2021/12/08 00:30:43;;;;;;;2.73;2.40;;;5.10;99.90;;;;;;4979320;28;20486;-53
2021/12/08 00:33:09;;;;;;;5.77;1.90;;;5.20;99.90;;;;;;5013675;28;20545;-54
2021/12/08 00:35:37;;;;;;;2.73;2.20;;;5.00;99.90;;;;;;4979590;28;20414;-57
2021/12/08 00:38:04;;;;;;;2.37;1.80;;;5.10;99.90;;;;;;4979787;28;20411;-56
2021/12/08 00:40:31;;;;;;;7.03;2.57;;;5.00;99.90;;;;;;4999327;28;20410;-57
2021/12/08 00:42:57;;;;;;;3.90;2.93;;;5.10;99.90;;;;;;4998869;28;20480;-57
2021/12/08 00:45:24;;;;;;;3.40;2.70;;;5.00;99.90;;;;;;4998928;28;20415;-57
2021/12/08 00:47:51;;;;;;;2.20;2.00;;;5.10;99.90;;;;;;5019248;28;20415;-58
2021/12/08 00:50:19;;;;;;;3.30;2.27;;;5.00;99.90;;;;;;4983973;28;20473;-54
2021/12/08 00:52:46;;;;;;;3.53;2.43;;;5.00;99.90;;;;;;4999277;28;20409;-58
2021/12/08 00:55:14;;;;;;;2.40;2.20;;;5.00;99.90;;;;;;5016766;28;20869;-55
2021/12/08 00:57:41;;;;;;;5.67;2.70;;;5.00;99.90;;;;;;4982193;28;20411;-57
2021/12/08 01:00:11;;;;;;;5.00;2.10;;;4.90;99.90;;;;;;4982541;28;20761;-56
2021/12/08 01:02:39;;;;;;;2.10;1.90;;;5.00;99.90;;;;;;4982692;28;20426;-56
2021/12/08 01:05:17;;;;;;;2.37;2.20;;;5.10;99.90;;;;;;4998979;28;20473;-56
2021/12/08 01:07:43;;;;;;;3.60;2.87;;;5.20;99.90;;;;;;5015768;28;20398;-57
2021/12/08 01:10:14;;;;;;;3.80;2.60;;;5.20;99.90;;;;;;4982155;28;20451;-56
2021/12/08 01:12:39;;;;;;;3.60;2.20;;;5.00;99.90;;;;;;4981925;28;20407;-57
2021/12/08 01:15:06;;;;;;;2.70;2.50;;;4.80;99.90;;;;;;4998223;28;20408;-58
2021/12/08 01:17:32;;;;;;;4.00;2.47;;;4.70;99.90;;;;;;4998327;28;20191;-58
2021/12/08 01:19:58;;;;;;;4.67;2.70;;;4.70;99.90;;;;;;4998320;28;20461;-58
2021/12/08 01:22:24;;;;;;;2.20;1.97;;;4.70;99.90;;;;;;4998134;28;20907;-58
2021/12/08 01:24:50;;;;;;;3.40;2.70;;;4.60;99.90;;;;;;4998279;28;20511;-58
2021/12/08 01:27:15;;;;;;;5.50;2.67;;;4.40;99.90;;;;;;4981543;28;20242;-58
2021/12/08 01:29:41;;;;;;;5.20;2.80;;;4.50;99.90;;;;;;5016134;28;20196;-58
2021/12/08 01:32:07;;;;;;;4.43;3.00;;;4.50;99.90;;;;;;4999055;28;20170;-58
2021/12/08 01:34:34;;;;;;;3.80;2.40;;;4.60;99.90;;;;;;5015393;28;20211;-57
2021/12/08 01:37:00;;;;;;;2.73;2.53;;;4.50;99.90;;;;;;5015650;28;20832;-58
2021/12/08 01:39:26;;;;;;;3.70;2.90;;;4.60;99.90;;;;;;5014955;28;20439;-57
2021/12/08 01:41:53;;;;;;;2.63;2.43;;;4.70;99.90;;;;;;5015286;28;20183;-57
2021/12/08 01:47:04;;;;;;;2.80;2.40;;;5.00;99.90;;;;;;4995535;28;20400;-57
2021/12/08 01:49:30;;;;;;;9.73;4.40;;;5.00;99.90;;;;;;4981461;28;20451;-58
2021/12/08 01:51:56;;;;;;;6.43;4.03;;;5.10;99.90;;;;;;4985969;28;20930;-55
2021/12/08 01:54:22;;;;;;;3.47;2.63;;;5.00;99.90;;;;;;4977869;28;20427;-58
2021/12/08 01:56:48;;;;;;;6.03;3.43;;;5.00;99.90;;;;;;4987889;28;20430;-58
2021/12/08 01:59:13;;;;;;;4.80;4.40;;;4.70;99.90;;;;;;4997332;28;20540;-57
2021/12/08 02:01:43;;;;;;;3.87;2.90;;;4.50;99.90;;;;;;5014827;28;20910;-58
2021/12/08 02:04:09;;;;;;;4.40;3.37;;;4.70;99.90;;;;;;4980700;28;20441;-58
2021/12/08 02:06:39;;;;;;;6.33;4.63;;;5.00;99.90;;;;;;5015084;28;20418;-57
2021/12/08 02:09:09;;;;;;;7.33;4.70;;;5.10;99.90;;;;;;4996746;28;20505;-57
2021/12/08 02:11:36;;;;;;;5.53;3.77;;;5.20;99.90;;;;;;5015083;28;20402;-57
2021/12/08 02:14:02;;;;;;;4.53;3.63;;;5.20;99.90;;;;;;4997023;28;20423;-58
2021/12/08 02:16:29;;;;;;;3.17;2.73;;;5.20;99.90;;;;;;5014693;28;20406;-56
2021/12/08 02:18:55;;;;;;;3.20;2.90;;;5.20;99.90;;;;;;5014464;28;20398;-56
2021/12/08 02:21:24;;;;;;;3.23;2.60;;;5.20;99.90;;;;;;5015016;28;20450;-57
2021/12/08 02:23:50;;;;;;;2.00;1.80;;;5.30;99.90;;;;;;5015197;28;20513;-58
2021/12/08 02:26:16;;;;;;;2.73;2.40;;;5.20;99.90;;;;;;4998707;28;20403;-58
2021/12/08 02:28:44;;;;;;;4.17;2.60;;;5.20;99.90;;;;;;5014249;28;20402;-56
2021/12/08 02:31:13;;;;;;;3.80;2.33;;;5.10;99.90;;;;;;5014573;28;20631;-58
2021/12/08 02:47:52;;;;;;;2.60;2.10;;;5.30;99.90;;;;;;5014095;28;20383;-60
2021/12/08 02:50:25;;;;;;;2.97;2.53;;;5.20;99.90;;;;;;5029993;28;20442;-60
2021/12/08 02:52:52;;;;;;;3.70;2.90;;;5.20;99.90;;;;;;4987893;28;20412;-58
2021/12/08 02:55:18;;;;;;;24.53;15.57;;;5.10;99.90;;;;;;5015034;28;20403;-60
2021/12/08 02:57:44;;;;;;;8.00;5.17;;;5.20;99.90;;;;;;4996322;28;20426;-60
2021/12/08 03:00:14;;;;;;;3.30;3.00;;;5.30;99.90;;;;;;4996629;28;20168;-60
2021/12/08 03:02:40;;;;;;;2.43;2.23;;;5.30;99.90;;;;;;4995536;28;20156;-59
2021/12/08 03:05:06;;;;;;;5.37;2.50;;;5.40;99.90;;;;;;5013950;28;20949;-60
2021/12/08 03:07:32;;;;;;;3.93;2.40;;;5.40;99.90;;;;;;5013931;28;20164;-59
2021/12/08 03:10:07;;;;;;;3.27;2.27;;;5.40;99.90;;;;;;5014021;28;20447;-60
2021/12/08 03:12:33;;;;;;;2.33;2.13;;;5.30;99.90;;;;;;5022009;28;20422;-59
2021/12/08 03:14:59;;;;;;;1.70;1.60;;;5.30;99.90;;;;;;5028989;28;20530;-60
2021/12/08 03:17:24;;;;;;;3.53;2.47;;;5.30;99.90;;;;;;5029296;28;20167;-60
2021/12/08 03:19:50;;;;;;;3.10;2.37;;;5.40;99.90;;;;;;5030337;28;20176;-60
2021/12/08 03:22:16;;;;;;;4.23;2.67;;;5.50;99.90;;;;;;5031122;28;20255;-60
2021/12/08 03:24:45;;;;;;;2.40;2.20;;;5.50;99.90;;;;;;5029935;28;20431;-60
2021/12/08 03:27:18;;;;;;;2.00;1.80;;;5.40;99.90;;;;;;5001264;28;20166;-60
2021/12/08 03:32:17;;;;;;;5.00;2.20;;;5.40;99.90;;;;;;5010750;28;20400;-61
2021/12/08 03:34:54;;;;;;;4.93;2.20;;;5.50;99.90;;;;;;5006816;28;20439;-60
2021/12/08 03:37:26;;;;;;;3.60;2.63;;;5.50;99.90;;;;;;4977691;28;20431;-60
2021/12/08 03:39:53;;;;;;;3.50;2.20;;;5.50;99.90;;;;;;4976574;28;20774;-60
2021/12/08 03:42:22;;;;;;;2.30;2.00;;;5.40;99.90;;;;;;4992654;28;20829;-60
2021/12/08 03:44:50;;;;;;;2.37;1.90;;;5.40;99.90;;;;;;4995783;28;20440;-60
2021/12/08 03:47:18;;;;;;;2.47;2.20;;;5.40;99.90;;;;;;4994072;28;20408;-60
2021/12/08 03:49:46;;;;;;;3.60;1.97;;;5.40;99.90;;;;;;4993515;28;20481;-60
2021/12/08 03:52:12;;;;;;;2.83;2.13;;;5.30;99.90;;;;;;4993720;28;20503;-60
2021/12/08 03:54:38;;;;;;;3.80;2.83;;;5.30;99.90;;;;;;4976313;28;20504;-60
2021/12/08 03:57:05;;;;;;;4.37;3.07;;;5.20;99.90;;;;;;5005438;28;20883;-60
2021/12/08 03:59:31;;;;;;;3.33;2.83;;;5.20;99.90;;;;;;5012889;28;20664;-60
2021/12/08 04:01:56;;;;;;;3.90;3.30;;;5.20;99.90;;;;;;5013171;28;20403;-60
2021/12/08 04:04:26;;;;;;;3.07;2.77;;;5.30;99.90;;;;;;5013284;28;20590;-60
2021/12/08 04:06:53;;;;;;;3.23;2.77;;;5.50;99.90;;;;;;5013064;28;20195;-60
2021/12/08 04:09:42;;;;;;;5.40;3.13;;;5.40;99.90;;;;;;5012959;28;20411;-60
2021/12/08 04:12:11;;;;;;;2.93;2.73;;;5.50;99.90;;;;;;5013683;28;20413;-60
2021/12/08 04:14:43;;;;;;;3.37;3.07;;;5.70;99.90;;;;;;5015324;28;20427;-60
2021/12/08 04:17:24;;;;;;;2.47;2.27;;;5.90;99.90;;;;;;5017318;28;20410;-59
2021/12/08 04:19:52;;;;;;;4.00;3.70;;;5.90;99.90;;;;;;5017293;28;20390;-61
2021/12/08 04:22:35;;;;;;;3.20;2.83;;;5.80;99.90;;;;;;5016724;28;20415;-61
2021/12/08 04:25:16;;;;;;;2.90;2.70;;;5.90;99.90;;;;;;5016673;28;20432;-60
2021/12/08 04:27:43;;;;;;;3.30;2.97;;;5.80;99.90;;;;;;5017200;28;20810;-60
2021/12/08 04:30:14;;;;;;;7.03;3.60;;;5.70;99.90;;;;;;5016277;28;20450;-61
2021/12/08 04:32:41;;;;;;;4.53;4.00;;;5.60;99.90;;;;;;4999002;28;20409;-61
2021/12/08 04:35:10;;;;;;;4.73;3.30;;;5.30;99.90;;;;;;4998826;28;20443;-61
2021/12/08 04:37:39;;;;;;;5.30;3.60;;;5.20;99.90;;;;;;5016467;28;20908;-60
2021/12/08 04:40:28;;;;;;;5.80;3.27;;;5.30;99.90;;;;;;5016533;28;20892;-61
2021/12/08 04:45:37;;;;;;;3.70;3.40;;;5.20;99.90;;;;;;5002320;28;20515;-60
2021/12/08 04:50:45;;;;;;;4.63;4.23;;;5.40;99.90;;;;;;4996805;28;20447;-61
2021/12/08 05:09:03;;;;;;;6.17;4.50;;;5.40;99.90;;;;;;5016162;28;20391;-59
2021/12/08 05:11:34;;;;;;;5.40;4.37;;;5.60;99.90;;;;;;5016185;28;20488;-60
2021/12/08 05:14:49;;;;;;;4.80;4.20;;;5.80;99.90;;;;;;5015873;28;20502;-60
2021/12/08 05:17:30;;;;;;;4.40;4.00;;;5.90;99.90;;;;;;5012275;28;20415;-59
2021/12/08 05:19:58;;;;;;;5.50;4.70;;;6.00;99.90;;;;;;5015959;28;20387;-59
2021/12/08 05:22:34;;;;;;;4.93;4.43;;;6.00;99.90;;;;;;5015488;28;20774;-59
2021/12/08 05:25:05;;;;;;;4.60;4.20;;;6.10;99.90;;;;;;4997539;28;20426;-60
2021/12/08 05:27:39;;;;;;;4.33;3.90;;;6.20;99.90;;;;;;4997922;28;20767;-60
2021/12/08 05:30:27;;;;;;;9.43;4.60;;;6.10;99.90;;;;;;5015473;28;20447;-60
2021/12/08 05:32:53;;;;;;;5.50;4.10;;;6.10;99.90;;;;;;5015795;28;20423;-60
2021/12/08 05:35:21;;;;;;;5.47;4.60;;;6.10;99.90;;;;;;4998449;28;20424;-61
2021/12/08 05:37:47;;;;;;;4.47;4.07;;;6.20;99.90;;;;;;5015351;28;20894;-61
2021/12/08 05:40:25;;;;;;;5.17;4.67;;;6.30;99.90;;;;;;4997409;28;20439;-61
2021/12/08 05:42:50;;;;;;;7.23;6.33;;;6.30;99.90;;;;;;5015398;28;20392;-61
2021/12/08 05:45:18;;;;;;;5.20;4.70;;;6.00;99.90;;;;;;5014954;28;20517;-61
2021/12/08 05:47:46;;;;;;;5.10;4.60;;;6.20;99.90;;;;;;5015117;28;20657;-60
2021/12/08 05:50:18;;;;;;;6.10;5.50;;;6.30;99.90;;;;;;5014894;28;20510;-61
2021/12/08 05:52:44;;;;;;;5.90;4.80;;;6.40;99.90;;;;;;5013690;28;20951;-60
2021/12/08 05:55:10;;;;;;;4.70;4.17;;;6.50;99.90;;;;;;4996352;28;20519;-61
2021/12/08 05:57:40;;;;;;;5.63;5.07;;;6.50;99.90;;;;;;5011578;28;20407;-59
2021/12/08 06:00:10;;;;;;;5.33;4.57;;;6.40;99.90;;;;;;5014615;28;20831;-56
2021/12/08 06:02:37;;;;;;;5.07;4.50;;;6.30;99.90;;;;;;4997421;28;20451;-56
2021/12/08 06:05:06;;;;;;;5.30;4.80;;;6.20;99.90;;;;;;5014644;28;20423;-61
2021/12/08 06:07:32;;;;;;;5.67;4.70;;;6.20;99.90;;;;;;5014642;28;20411;-61
2021/12/08 06:10:01;;;;;;;5.70;5.20;;;6.10;99.90;;;;;;5014391;28;20582;-60
2021/12/08 06:12:27;;;;;;;6.80;6.20;;;6.30;99.90;;;;;;5014994;28;20203;-61
2021/12/08 06:14:55;;;;;;;5.40;4.90;;;6.50;99.90;;;;;;5014289;28;20500;-61
2021/12/08 06:17:24;;;;;;;5.37;4.87;;;6.50;99.90;;;;;;5014483;28;20439;-59
2021/12/08 06:19:50;;;;;;;5.60;5.03;;;6.50;99.90;;;;;;5014521;28;20781;-61
2021/12/08 06:22:19;;;;;;;5.60;5.10;;;6.50;99.90;;;;;;4996815;28;20418;-60
2021/12/08 06:24:47;;;;;;;5.17;4.77;;;6.60;99.90;;;;;;5013949;28;20435;-60
2021/12/08 06:27:13;;;;;;;5.10;4.60;;;6.70;99.90;;;;;;4980659;28;20451;-61
2021/12/08 06:29:40;;;;;;;7.70;5.40;;;6.70;99.90;;;;;;5014149;28;21030;-61
2021/12/08 06:32:08;;;;;;;7.00;5.87;;;6.70;99.90;;;;;;5014482;28;20455;-60
2021/12/08 06:34:36;;;;;;;8.50;6.67;;;6.70;99.90;;;;;;5014010;28;20436;-59
2021/12/08 06:37:13;;;;;;;6.50;5.20;;;6.60;99.90;;;;;;5014127;28;20891;-60
2021/12/08 06:39:43;;;;;;;5.70;5.20;;;6.50;99.90;;;;;;5014018;28;20925;-61
2021/12/08 06:42:15;;;;;;;5.57;4.90;;;6.30;99.90;;;;;;5014283;28;20402;-60
2021/12/08 06:44:46;;;;;;;6.67;5.47;;;6.10;99.90;;;;;;4996761;28;20827;-61
2021/12/08 06:47:17;;;;;;;7.03;5.50;;;5.80;99.90;;;;;;5014425;28;20434;-59
2021/12/08 06:49:45;;;;;;;7.03;6.37;;;5.80;99.90;;;;;;5014402;28;20435;-60
2021/12/08 06:52:15;;;;;;;13.53;9.50;;;5.70;99.90;;;;;;5014015;28;20414;-61
2021/12/08 06:54:48;;;;;;;6.13;5.57;;;5.80;99.90;;;;;;5014088;28;20427;-59
2021/12/08 06:57:23;;;;;;;5.70;5.20;;;5.70;99.90;;;;;;4996306;28;20481;-60
2021/12/08 06:59:59;;;;;;;10.53;6.77;;;5.70;99.90;;;;;;4996808;28;20396;-60
2021/12/08 07:02:55;;;;;;;6.30;5.70;;;5.50;99.90;;;;;;5013808;28;20413;-60
2021/12/08 07:05:42;;;;;;;6.10;5.50;;;5.60;99.90;;;;;;5013152;28;20435;-60
2021/12/08 07:08:10;;;;;;;5.63;5.03;;;5.60;99.90;;;;;;4999163;28;20402;-61
2021/12/08 07:10:41;;;;;;;5.43;4.93;;;5.50;99.90;;;;;;5013763;28;20454;-60
2021/12/08 07:13:11;;;;;;;5.70;5.20;;;5.50;99.90;;;;;;4996022;28;20461;-61
2021/12/08 07:15:39;;;;;;;4.77;4.33;;;5.40;99.90;;;;;;5013640;28;20490;-60
2021/12/08 07:18:25;;;;;;;13.10;5.17;;;5.60;99.90;;;;;;5013598;28;20407;-60
2021/12/08 07:20:59;;;;;;;5.23;4.50;;;5.60;99.90;;;;;;5014144;28;20971;-60
2021/12/08 07:23:36;;;;;;;4.57;4.20;;;5.70;99.90;;;;;;5013371;28;20433;-61
2021/12/08 07:26:05;;;;;;;5.73;5.17;;;5.70;99.90;;;;;;5013857;28;20417;-59
2021/12/08 07:28:31;;;;;;;5.60;5.10;;;5.70;99.90;;;;;;5013527;28;20456;-60
2021/12/08 07:31:17;;;;;;;5.90;5.30;;;5.60;99.90;;;;;;4995990;28;20454;-59
2021/12/08 07:33:43;;;;;;;4.67;4.17;;;5.70;99.90;;;;;;5013243;28;20210;-61
2021/12/08 07:36:14;;;;;;;5.93;4.60;;;5.70;99.90;;;;;;5004831;28;20899;-61
2021/12/08 07:38:40;;;;;;;4.70;4.30;;;5.80;99.90;;;;;;5011734;28;20461;-60
2021/12/08 07:41:14;;;;;;;5.10;4.33;;;5.80;99.90;;;;;;5013475;28;20426;-60
2021/12/08 07:43:47;;;;;;;4.27;3.87;;;5.80;99.90;;;;;;5013283;28;20430;-60
2021/12/08 07:46:20;;;;;;;4.40;4.00;;;6.00;99.90;;;;;;5013694;28;20395;-61
2021/12/08 07:48:58;;;;;;;4.17;3.40;;;5.90;99.90;;;;;;4996532;28;20403;-60
2021/12/08 07:51:29;;;;;;;4.10;3.80;;;5.90;99.90;;;;;;5017489;28;20776;-61
2021/12/08 07:53:56;;;;;;;4.10;3.70;;;5.90;99.90;;;;;;5032099;28;20509;-59
2021/12/08 07:56:24;;;;;;;4.10;3.77;;;5.90;99.90;;;;;;5017347;28;20422;-61
2021/12/08 07:58:55;;;;;;;5.53;3.27;;;5.90;99.90;;;;;;5001229;28;20412;-60
2021/12/08 08:01:26;;;;;;;3.43;3.13;;;5.90;99.90;;;;;;4997807;28;20424;-62
2021/12/08 08:03:53;;;;;;;3.67;3.37;;;5.90;99.90;;;;;;4979688;28;20936;-60
2021/12/08 08:06:27;;;;;;;3.30;2.77;;;5.80;99.90;;;;;;4997291;28;20416;-60
2021/12/08 08:08:53;;;;;;;3.47;3.17;;;5.80;99.90;;;;;;4980308;28;20434;-62
2021/12/08 08:11:30;;;;;;;5.93;5.40;;;5.90;99.90;;;;;;4997687;28;20447;-61
2021/12/08 08:13:56;;;;;;;5.00;4.50;;;5.90;99.90;;;;;;4997250;28;20806;-62
2021/12/08 08:16:27;;;;;;;4.07;3.63;;;6.10;99.90;;;;;;4997248;28;20419;-61
2021/12/08 08:19:01;;;;;;;4.77;3.30;;;6.40;99.90;;;;;;4997730;28;20861;-60
2021/12/08 08:21:30;;;;;;;5.00;4.53;;;6.50;99.90;;;;;;4997329;28;20802;-61
2021/12/08 08:23:58;;;;;;;6.97;6.27;;;6.60;99.90;;;;;;4979296;28;20469;-59
2021/12/08 08:26:25;;;;;;;6.17;5.57;;;6.70;99.90;;;;;;5003434;28;20415;-60
2021/12/08 08:28:52;;;;;;;4.60;4.20;;;6.80;99.90;;;;;;4998623;28;20845;-58
2021/12/08 08:31:32;;;;;;;4.30;3.90;;;7.00;99.90;;;;;;5016314;28;20927;-59
2021/12/08 08:33:58;;;;;;;4.23;3.63;;;6.90;99.90;;;;;;5041028;23;20784;-57
2021/12/08 08:36:29;;;;;;;3.93;3.57;;;6.90;99.90;;;;;;4999436;28;20414;-57
2021/12/08 08:39:10;;;;;;;3.60;3.30;;;6.70;99.90;;;;;;4999349;28;20877;-55
2021/12/08 08:41:43;;;;;;;4.30;3.93;;;6.90;99.90;;;;;;5017258;28;20437;-56
2021/12/08 08:44:36;;;;;;;3.90;3.50;;;6.90;99.90;;;;;;4999210;28;20432;-57
2021/12/08 08:47:15;;;;;;;5.70;4.53;;;6.90;99.90;;;;;;5016217;28;20460;-56
2021/12/08 08:49:42;;;;;;;4.70;3.90;;;7.10;99.90;;;;;;5017206;28;20445;-54
2021/12/08 08:52:16;;;;;;;5.57;4.17;;;7.00;99.90;;;;;;5017175;28;20562;-55
2021/12/08 08:54:46;;;;;;;5.00;4.20;;;6.90;99.90;;;;;;4999057;28;20462;-55
2021/12/08 08:57:18;;;;;;;5.30;4.03;;;7.00;99.90;;;;;;4999319;28;20415;-56
2021/12/08 08:59:49;;;;;;;5.20;4.13;;;7.00;99.90;;;;;;5016070;28;20908;-55
2021/12/08 09:02:19;;;;;;;5.60;4.60;;;7.20;99.90;;;;;;4998784;28;20395;-56
2021/12/08 09:04:49;;;;;;;5.30;4.50;;;7.20;99.90;;;;;;4998889;28;20434;-53
2021/12/08 09:07:22;;;;;;;4.83;4.20;;;7.30;99.90;;;;;;5016676;28;20395;-57
2021/12/08 09:09:52;;;;;;;5.93;4.30;;;7.30;99.90;;;;;;4998501;28;20444;-55
2021/12/08 09:12:26;;;;;;;7.17;5.10;;;7.30;99.90;;;;;;4982795;28;20424;-56
2021/12/08 09:15:01;;;;;;;6.00;5.27;;;7.40;99.90;;;;;;4983061;28;20417;-57
2021/12/08 09:17:33;;;;;;;4.87;4.37;;;7.50;99.90;;;;;;4967241;28;20395;-56
2021/12/08 09:20:02;;;;;;;5.73;5.17;;;7.40;99.90;;;;;;4983233;28;20414;-57
2021/12/08 09:22:39;;;;;;;4.77;4.37;;;7.50;99.90;;;;;;5016132;28;20407;-55
2021/12/08 09:25:12;;;;;;;6.80;4.37;;;7.60;99.90;;;;;;4998693;28;20435;-57
2021/12/08 09:27:48;;;;;;;4.50;4.10;;;7.50;99.90;;;;;;5015810;28;20429;-57
2021/12/08 09:30:40;;;;;;;4.60;4.20;;;7.40;99.90;;;;;;5015887;28;20953;-55
2021/12/08 09:33:23;;;;;;;5.27;4.77;;;7.50;99.90;;;;;;4999942;28;20924;-58
2021/12/08 09:35:55;;;;;;;7.00;5.10;;;7.60;99.90;;;;;;4997913;28;20975;-57
2021/12/08 09:38:26;;;;;;;6.13;5.53;;;7.70;99.90;;;;;;4998996;28;20393;-57
2021/12/08 09:41:00;;;;;;;7.80;5.00;;;7.60;99.90;;;;;;5015057;28;20401;-58
2021/12/08 09:43:34;;;;;;;6.50;4.90;;;7.40;99.90;;;;;;4999169;28;20419;-57
2021/12/08 09:46:05;;;;;;;5.80;5.20;;;7.20;99.90;;;;;;4998310;28;20954;-57
2021/12/08 09:48:31;;;;;;;5.67;5.17;;;7.30;99.90;;;;;;4996272;28;20418;-57
2021/12/08 09:50:58;;;;;;;5.90;5.30;;;7.50;99.90;;;;;;4978326;28;20445;-58
2021/12/08 09:53:26;;;;;;;6.33;5.53;;;7.60;99.90;;;;;;4961957;28;20419;-57
2021/12/08 09:55:53;;;;;;;6.37;5.27;;;7.60;99.90;;;;;;4980229;28;20510;-54
2021/12/08 09:58:18;;;;;;;5.50;4.97;;;7.50;99.90;;;;;;4998124;28;20770;-57
2021/12/08 10:00:46;;;;;;;5.97;5.40;;;7.50;99.90;;;;;;5014581;28;20405;-57
2021/12/08 10:03:16;;;;;;;7.80;6.33;;;7.50;99.90;;;;;;4997893;28;20206;-55
2021/12/08 10:05:43;;;;;;;8.03;7.13;;;7.60;99.90;;;;;;4998629;28;20958;-56
2021/12/08 10:08:09;;;;;;;7.10;6.07;;;7.70;99.90;;;;;;5015121;28;20755;-51
2021/12/08 10:10:37;;;;;;;8.20;7.30;;;7.70;99.90;;;;;;5014938;28;20447;-51
2021/12/08 10:13:07;;;;;;;6.90;6.20;;;7.70;99.90;;;;;;4997339;28;20515;-55
2021/12/08 10:15:32;;;;;;;7.43;5.90;;;7.90;99.90;;;;;;4981398;28;20428;-55
2021/12/08 10:17:58;;;;;;;5.80;5.30;;;8.00;99.90;;;;;;5015086;28;20783;-57
2021/12/08 10:20:39;;;;;;;6.07;5.57;;;7.90;99.90;;;;;;5015482;28;20170;-51
2021/12/08 10:23:17;;;;;;;5.50;4.97;;;7.90;99.90;;;;;;4997605;28;20395;-56
2021/12/08 10:26:00;;;;;;;6.20;5.60;;;7.90;99.90;;;;;;5014818;28;20425;-54
2021/12/08 10:28:31;;;;;;;5.47;4.97;;;8.00;99.90;;;;;;5009817;28;20433;-57
2021/12/08 10:31:25;;;;;;;6.50;4.83;;;8.00;99.90;;;;;;5019583;28;20452;-58
2021/12/08 10:36:54;;;;;;;3.70;3.40;;;8.10;99.90;;;;;;4998172;28;20930;-55
2021/12/08 10:39:22;;;;;;;3.70;3.40;;;8.10;99.90;;;;;;5014357;28;20535;-55
2021/12/08 10:42:26;;;;;;;5.70;4.10;;;8.10;99.90;;;;;;4980885;28;20461;-56
2021/12/08 10:45:15;;;;;;;4.13;3.83;;;8.10;99.90;;;;;;4991713;28;20485;-53
2021/12/08 10:47:50;;;;;;;6.60;4.80;;;8.20;99.90;;;;;;5000144;28;20390;-54
2021/12/08 10:56:11;;;;;;;4.30;3.90;;;8.10;99.90;;;;;;5000721;28;20928;-57
2021/12/08 10:58:43;;;;;;;4.50;4.10;;;8.00;99.90;;;;;;4981249;28;20399;-55
2021/12/08 11:01:11;;;;;;;3.67;3.37;;;8.00;99.90;;;;;;4996843;28;20403;-57
2021/12/08 11:03:38;;;;;;;3.90;3.60;;;8.10;99.90;;;;;;4997059;28;20409;-58
2021/12/08 11:06:04;;;;;;;3.50;3.20;;;8.10;99.90;;;;;;5014287;28;20412;-57
2021/12/08 11:08:34;;;;;;;3.57;3.27;;;8.10;99.90;;;;;;5014327;28;20418;-58
2021/12/08 11:11:13;;;;;;;3.70;2.83;;;8.20;99.90;;;;;;4979696;28;20468;-58
2021/12/08 11:13:43;;;;;;;3.80;3.40;;;8.20;99.90;;;;;;4997485;28;20382;-58
2021/12/08 11:16:16;;;;;;;3.23;3.00;;;8.20;99.90;;;;;;5013870;28;20910;-55
2021/12/08 11:18:45;;;;;;;3.03;2.80;;;8.20;99.90;;;;;;4996409;28;20401;-56
2021/12/08 11:21:25;;;;;;;3.20;3.00;;;8.20;99.90;;;;;;4996502;28;20440;-57
2021/12/08 11:23:53;;;;;;;3.70;3.40;;;8.30;99.90;;;;;;5013367;28;20829;-57
2021/12/08 11:26:38;;;;;;;3.63;3.10;;;8.10;99.90;;;;;;5014919;28;20440;-56
2021/12/08 11:29:31;;;;;;;3.70;3.40;;;8.10;99.90;;;;;;4997191;28;20409;-56
2021/12/08 11:31:59;;;;;;;3.97;3.60;;;8.20;99.90;;;;;;4995079;28;20428;-56
2021/12/08 11:34:35;;;;;;;3.60;3.30;;;8.20;99.90;;;;;;5013647;28;20977;-57
2021/12/08 11:37:09;;;;;;;8.10;4.17;;;8.30;99.90;;;;;;4996741;28;20971;-55
2021/12/08 11:39:40;;;;;;;4.00;3.60;;;8.20;99.90;;;;;;5013830;28;20420;-57
2021/12/08 11:42:12;;;;;;;4.00;3.60;;;8.20;99.90;;;;;;4996947;28;20414;-56
2021/12/08 11:44:49;;;;;;;5.23;3.33;;;8.20;99.90;;;;;;4996594;28;20428;-54
2021/12/08 11:47:22;;;;;;;3.60;3.30;;;8.30;99.90;;;;;;4996993;28;20967;-53
2021/12/08 11:49:52;;;;;;;4.17;3.80;;;8.30;99.90;;;;;;4977542;28;20453;-52
2021/12/08 11:52:24;;;;;;;3.17;2.87;;;8.40;99.90;;;;;;4977436;28;20391;-56
2021/12/08 11:54:56;;;;;;;4.03;3.47;;;8.50;99.90;;;;;;4994275;28;20472;-55
2021/12/08 11:57:25;;;;;;;3.67;3.33;;;8.60;99.90;;;;;;5009294;28;20421;-55
2021/12/08 11:59:54;;;;;;;4.17;3.77;;;8.50;99.90;;;;;;4997039;28;20407;-56
2021/12/08 12:02:22;;;;;;;4.57;4.17;;;8.50;99.90;;;;;;5014110;28;20823;-56
2021/12/08 12:04:49;;;;;;;5.30;4.53;;;8.40;99.90;;;;;;4996534;28;20942;-57
2021/12/08 12:07:16;;;;;;;4.00;3.20;;;8.50;99.90;;;;;;4979857;28;20440;-55
2021/12/08 12:09:42;;;;;;;4.13;3.80;;;8.40;99.90;;;;;;4996330;28;20417;-56
2021/12/08 12:12:10;;;;;;;5.60;4.17;;;8.30;99.90;;;;;;4996180;28;20393;-54
2021/12/08 12:14:35;;;;;;;4.20;3.53;;;8.30;99.90;;;;;;5013321;28;20423;-57
2021/12/08 12:17:01;;;;;;;4.27;3.87;;;8.30;99.90;;;;;;5012883;28;20803;-57
2021/12/08 12:19:33;;;;;;;4.10;3.70;;;8.30;99.90;;;;;;5013093;28;20243;-53
2021/12/08 12:22:19;;;;;;;3.73;3.40;;;8.30;99.90;;;;;;4980015;28;20510;-57
2021/12/08 12:24:56;;;;;;;4.07;3.60;;;8.10;99.90;;;;;;4995687;28;20496;-57
2021/12/08 12:27:54;;;;;;;3.90;3.53;;;8.10;99.90;;;;;;4995868;28;20801;-58
2021/12/08 12:31:11;;;;;;;3.90;3.60;;;8.00;99.90;;;;;;4996014;28;20444;-57
2021/12/08 12:33:42;;;;;;;3.50;3.20;;;7.90;99.90;;;;;;4978915;28;20419;-54
2021/12/08 12:36:30;;;;;;;4.30;3.90;;;8.20;99.90;;;;;;4982223;28;20929;-58
2021/12/08 12:39:20;;;;;;;4.87;3.87;;;8.20;99.90;;;;;;4999169;28;20381;-57
2021/12/08 12:42:00;;;;;;;4.17;3.80;;;8.10;99.90;;;;;;4999471;28;20405;-56
2021/12/08 12:44:31;;;;;;;4.70;4.30;;;8.10;99.90;;;;;;5016739;28;20433;-55
2021/12/08 12:47:11;;;;;;;4.77;4.30;;;8.20;99.90;;;;;;5017310;28;20713;-53
2021/12/08 12:49:40;;;;;;;5.63;4.50;;;8.30;99.90;;;;;;5016817;28;20398;-53
2021/12/08 12:52:08;;;;;;;7.73;5.70;;;8.30;99.90;;;;;;4999216;28;20798;-55
2021/12/08 12:54:35;;;;;;;6.00;5.50;;;8.10;99.90;;;;;;4998563;28;20419;-55
2021/12/08 12:57:06;;;;;;;5.93;5.40;;;8.20;99.90;;;;;;4998843;28;20413;-57
2021/12/08 12:59:53;;;;;;;6.20;5.30;;;8.20;99.90;;;;;;4998731;28;20413;-56
2021/12/08 13:02:30;;;;;;;6.40;4.83;;;8.10;99.90;;;;;;4999777;28;20403;-55
2021/12/08 13:05:08;;;;;;;6.67;5.60;;;8.10;99.90;;;;;;5000429;28;20440;-55
2021/12/08 13:07:39;;;;;;;5.70;5.20;;;8.30;99.90;;;;;;4999858;28;20416;-56
2021/12/08 13:10:19;;;;;;;7.03;6.37;;;8.20;99.90;;;;;;5016301;28;20448;-57
2021/12/08 13:12:46;;;;;;;7.47;6.70;;;8.10;99.90;;;;;;5017044;28;20481;-55
2021/12/08 13:15:21;;;;;;;8.80;6.00;;;8.20;99.90;;;;;;4998446;28;20436;-53
2021/12/08 13:18:09;;;;;;;5.80;5.20;;;8.10;99.90;;;;;;5016932;28;20406;-54
2021/12/08 13:20:41;;;;;;;6.43;5.83;;;8.20;99.90;;;;;;5015072;28;20909;-56
2021/12/08 13:23:10;;;;;;;6.13;5.57;;;8.30;99.90;;;;;;5005547;28;20439;-56
2021/12/08 13:25:52;;;;;;;5.17;4.70;;;8.40;99.90;;;;;;4996454;28;20487;-55
2021/12/08 13:28:22;;;;;;;5.83;5.30;;;8.40;99.90;;;;;;4999081;28;20444;-56
2021/12/08 13:30:49;;;;;;;8.00;6.00;;;8.40;99.90;;;;;;4999386;28;20825;-52
2021/12/08 13:34:02;;;;;;;5.40;4.90;;;8.50;99.90;;;;;;5016428;28;20434;-56
2021/12/08 13:36:37;;;;;;;5.47;4.97;;;8.60;99.90;;;;;;4998308;28;20448;-52
2021/12/08 13:39:21;;;;;;;5.17;4.60;;;8.60;99.90;;;;;;4999774;28;20754;-54
2021/12/08 13:42:15;;;;;;;5.60;5.10;;;8.50;99.90;;;;;;5016022;28;20412;-52
2021/12/08 13:44:53;;;;;;;5.17;4.53;;;8.50;99.90;;;;;;4997726;28;20591;-56
2021/12/08 13:47:36;;;;;;;5.30;4.80;;;8.40;99.90;;;;;;4981246;28;20923;-55
2021/12/08 13:50:13;;;;;;;6.60;6.00;;;8.30;99.90;;;;;;5008233;28;20933;-57
2021/12/08 13:53:06;;;;;;;6.43;5.83;;;8.30;99.90;;;;;;4962326;28;20422;-57
2021/12/08 13:55:32;;;;;;;6.23;5.70;;;8.30;99.90;;;;;;4969227;28;20481;-54
2021/12/08 13:58:05;;;;;;;6.40;5.80;;;8.30;99.90;;;;;;4997587;28;20954;-57
2021/12/08 14:00:36;;;;;;;6.30;5.73;;;8.20;99.90;;;;;;5015493;28;20487;-56
2021/12/08 14:03:04;;;;;;;8.33;7.07;;;8.10;99.90;;;;;;4997203;28;20417;-57
2021/12/08 14:05:42;;;;;;;9.43;8.30;;;8.10;99.90;;;;;;5015635;28;20436;-53
2021/12/08 14:08:23;;;;;;;8.77;7.90;;;8.10;99.90;;;;;;4981212;28;20412;-53
2021/12/08 14:10:55;;;;;;;8.30;7.50;;;7.90;99.90;;;;;;4997061;28;20459;-57